Time;durP1;ratioP1;P1;durP2;ratioP2;P2;SDS_P1;SDS_P2;PMS_P1;PMS_P2;Temp;Humidity;BMP_temperature;BMP_pressure;BME280_temperature;BME280_humidity;BME280_pressure;Samples;Min_cycle;Max_cycle;Signal;HPM_P1;HPM_P2
2023/04/10 00:01:34;;;;;;;45.13;22.80;;;7.30;99.90;;;;;;4200622;28;20490;-72
2023/04/10 00:03:36;;;;;;;48.70;24.40;;;7.20;99.90;;;;;;4199878;28;20909;-72
2023/04/10 00:05:38;;;;;;;41.33;23.00;;;7.20;99.90;;;;;;4204205;28;21125;-72
2023/04/10 00:07:40;;;;;;;47.30;24.20;;;7.20;99.90;;;;;;4199971;28;20499;-72
2023/04/10 00:09:43;;;;;;;43.60;23.30;;;7.20;99.90;;;;;;4200563;28;20482;-73
2023/04/10 00:11:45;;;;;;;42.20;23.67;;;7.10;99.90;;;;;;4194805;28;21008;-72
2023/04/10 00:13:47;;;;;;;41.13;22.00;;;7.10;99.90;;;;;;4200819;28;20474;-72
2023/04/10 00:15:50;;;;;;;44.70;22.93;;;7.10;99.90;;;;;;4199416;28;20450;-72
2023/04/10 00:17:54;;;;;;;45.33;23.13;;;7.00;99.90;;;;;;4197681;28;20571;-73
2023/04/10 00:19:58;;;;;;;41.93;21.90;;;7.00;99.90;;;;;;4203537;28;20553;-72
2023/04/10 00:21:59;;;;;;;42.07;22.50;;;6.90;99.90;;;;;;4202511;28;20874;-72
2023/04/10 00:24:01;;;;;;;44.30;23.23;;;6.90;99.90;;;;;;4199953;28;20454;-72
2023/04/10 00:26:05;;;;;;;45.77;23.90;;;6.90;99.90;;;;;;4200682;28;20480;-72
2023/04/10 00:28:07;;;;;;;44.83;23.60;;;6.80;99.90;;;;;;4197694;28;20465;-74
2023/04/10 00:30:09;;;;;;;42.50;23.70;;;6.80;99.90;;;;;;4200099;28;20448;-74
2023/04/10 00:32:11;;;;;;;47.17;24.73;;;6.80;99.90;;;;;;4201349;28;20458;-72
2023/04/10 00:34:13;;;;;;;46.07;25.37;;;6.70;99.90;;;;;;4204199;28;20441;-73
2023/04/10 00:36:16;;;;;;;49.70;26.17;;;6.70;99.90;;;;;;4198001;28;20468;-73
2023/04/10 00:38:18;;;;;;;44.07;24.73;;;6.70;99.90;;;;;;4202347;28;21035;-73
2023/04/10 00:40:20;;;;;;;46.57;26.07;;;6.70;99.90;;;;;;4199166;28;20566;-73
2023/04/10 00:42:23;;;;;;;45.23;24.63;;;6.60;99.90;;;;;;4204472;28;21000;-72
2023/04/10 00:44:25;;;;;;;46.17;24.97;;;6.60;99.90;;;;;;4205606;28;20473;-72
2023/04/10 00:46:28;;;;;;;44.90;23.97;;;6.60;99.90;;;;;;4202443;28;20488;-72
2023/04/10 00:48:30;;;;;;;44.20;23.10;;;6.50;99.90;;;;;;4210909;28;20459;-73
2023/04/10 00:50:32;;;;;;;44.27;22.63;;;6.50;99.90;;;;;;4206453;28;20898;-73
2023/04/10 00:52:34;;;;;;;41.27;23.00;;;6.50;99.90;;;;;;4202601;28;20498;-73
2023/04/10 00:54:36;;;;;;;41.27;21.83;;;6.40;99.90;;;;;;4201945;28;20561;-73
2023/04/10 00:56:38;;;;;;;44.03;22.10;;;6.40;99.90;;;;;;4202485;28;20483;-72
2023/04/10 00:58:41;;;;;;;39.23;22.40;;;6.50;99.90;;;;;;4206692;28;20921;-73
2023/04/10 01:00:43;;;;;;;43.37;21.57;;;6.40;99.90;;;;;;4201813;28;20843;-72
2023/04/10 01:02:45;;;;;;;44.57;22.63;;;6.30;99.90;;;;;;4204339;28;20534;-72
2023/04/10 01:04:48;;;;;;;41.40;22.20;;;6.30;99.90;;;;;;4205494;28;20483;-72
2023/04/10 01:06:58;;;;;;;41.63;21.87;;;6.30;99.90;;;;;;4202202;28;20475;-72
2023/04/10 01:09:05;;;;;;;38.30;20.67;;;6.30;99.90;;;;;;4204945;28;20561;-73
2023/04/10 01:11:13;;;;;;;42.07;21.37;;;6.30;99.90;;;;;;4205178;28;20459;-73
2023/04/10 01:13:21;;;;;;;39.93;21.27;;;6.20;99.90;;;;;;4205389;28;20486;-73
2023/04/10 01:15:28;;;;;;;40.43;20.40;;;6.20;99.90;;;;;;4207837;28;20467;-73
2023/04/10 01:17:36;;;;;;;40.27;21.13;;;6.20;99.90;;;;;;4204671;28;20577;-72
2023/04/10 01:20:02;;;;;;;39.83;20.17;;;6.20;99.90;;;;;;4202831;28;20456;-72
2023/04/10 01:22:09;;;;;;;36.67;19.57;;;6.10;99.90;;;;;;4204180;28;21122;-72
2023/04/10 01:24:36;;;;;;;37.23;20.13;;;6.10;99.90;;;;;;4203826;28;20462;-73
2023/04/10 01:26:52;;;;;;;38.20;20.00;;;6.10;99.90;;;;;;4207551;28;20482;-72
2023/04/10 01:29:00;;;;;;;35.80;19.50;;;6.10;99.90;;;;;;4204313;28;20485;-73
2023/04/10 01:31:04;;;;;;;36.93;19.33;;;6.10;99.90;;;;;;4204584;28;20461;-72
2023/04/10 01:33:12;;;;;;;38.33;19.37;;;6.00;99.90;;;;;;4204187;28;20463;-73
2023/04/10 01:35:16;;;;;;;35.53;19.00;;;6.00;99.90;;;;;;4205131;28;20988;-72
2023/04/10 01:37:21;;;;;;;37.83;19.17;;;6.00;99.90;;;;;;4201855;28;20592;-72
2023/04/10 01:39:27;;;;;;;37.13;19.13;;;6.00;99.90;;;;;;4205168;28;20454;-73
2023/04/10 01:41:30;;;;;;;36.07;18.97;;;5.90;99.90;;;;;;4204722;28;20497;-72
2023/04/10 01:43:34;;;;;;;38.67;19.40;;;5.90;99.90;;;;;;4200501;28;20541;-72
2023/04/10 01:45:40;;;;;;;35.23;19.90;;;5.90;99.90;;;;;;4204099;28;20901;-72
2023/04/10 01:47:43;;;;;;;39.20;19.23;;;5.90;99.90;;;;;;4202173;28;20497;-72
2023/04/10 01:49:47;;;;;;;37.03;19.43;;;5.90;99.90;;;;;;4198206;28;20562;-72
2023/04/10 01:51:50;;;;;;;37.83;19.80;;;5.90;99.90;;;;;;4208887;28;20552;-72
2023/04/10 01:53:52;;;;;;;36.33;19.20;;;5.80;99.90;;;;;;4206758;28;20845;-72
2023/04/10 01:55:54;;;;;;;35.93;18.93;;;5.80;99.90;;;;;;4206885;28;20493;-73
2023/04/10 01:57:56;;;;;;;35.47;19.10;;;5.80;99.90;;;;;;4205122;28;20516;-72
2023/04/10 01:59:58;;;;;;;38.10;19.60;;;5.80;99.90;;;;;;4206323;28;20562;-72
2023/04/10 02:02:03;;;;;;;36.13;18.87;;;5.80;99.90;;;;;;4207424;28;20560;-72
2023/04/10 02:04:05;;;;;;;37.63;19.73;;;5.80;99.90;;;;;;4200917;28;20457;-72
2023/04/10 02:06:16;;;;;;;35.97;19.97;;;5.70;99.90;;;;;;4203267;28;20568;-72
2023/04/10 02:08:23;;;;;;;38.33;19.63;;;5.70;99.90;;;;;;4205068;28;20542;-73
2023/04/10 02:10:31;;;;;;;36.03;20.00;;;5.70;99.90;;;;;;4205202;28;20563;-72
2023/04/10 02:12:38;;;;;;;38.63;19.63;;;5.60;99.90;;;;;;4203910;28;20456;-72
2023/04/10 02:14:45;;;;;;;36.87;20.63;;;5.60;99.90;;;;;;4202350;28;20470;-72
2023/04/10 02:16:47;;;;;;;43.27;20.90;;;5.60;99.90;;;;;;4202675;28;20485;-72
2023/04/10 02:18:52;;;;;;;37.13;19.93;;;5.60;99.90;;;;;;4200351;28;20461;-75
2023/04/10 02:20:55;;;;;;;38.60;20.47;;;5.60;99.90;;;;;;4200635;28;20577;-72
2023/04/10 02:23:00;;;;;;;40.70;20.77;;;5.60;99.90;;;;;;4205503;28;20553;-72
2023/04/10 02:25:05;;;;;;;40.03;21.27;;;5.50;99.90;;;;;;4203548;28;20450;-71
2023/04/10 02:27:07;;;;;;;38.07;20.77;;;5.50;99.90;;;;;;4203876;28;20477;-71
2023/04/10 02:29:09;;;;;;;42.53;21.47;;;5.50;99.90;;;;;;4202579;28;20473;-72
2023/04/10 02:31:11;;;;;;;39.97;21.50;;;5.50;99.90;;;;;;4197518;28;20458;-72
2023/04/10 02:33:13;;;;;;;39.03;20.93;;;5.40;99.90;;;;;;4202619;28;20520;-72
2023/04/10 02:35:16;;;;;;;40.53;20.93;;;5.40;99.90;;;;;;4203444;28;20489;-72
2023/04/10 02:37:18;;;;;;;37.33;20.63;;;5.40;99.90;;;;;;4201567;28;20472;-72
2023/04/10 02:39:20;;;;;;;40.87;20.97;;;5.40;99.90;;;;;;4198954;28;20471;-72
2023/04/10 02:41:23;;;;;;;40.10;20.23;;;5.30;99.90;;;;;;4203204;28;21054;-72
2023/04/10 02:43:25;;;;;;;38.57;20.50;;;5.30;99.90;;;;;;4200761;28;20457;-72
2023/04/10 02:45:27;;;;;;;36.37;19.67;;;5.30;99.90;;;;;;4202484;28;20601;-72
2023/04/10 02:47:29;;;;;;;35.87;19.17;;;5.30;99.90;;;;;;4198801;28;20501;-72
2023/04/10 02:49:31;;;;;;;35.63;18.33;;;5.30;99.90;;;;;;4202027;28;21083;-73
2023/04/10 02:51:36;;;;;;;39.00;19.07;;;5.20;99.90;;;;;;4201730;28;21002;-72
2023/04/10 02:53:38;;;;;;;37.07;19.43;;;5.20;99.90;;;;;;4198688;28;20543;-72
2023/04/10 02:55:40;;;;;;;35.70;19.13;;;5.20;99.90;;;;;;4201865;28;21002;-73
2023/04/10 02:57:42;;;;;;;34.53;17.77;;;5.20;99.90;;;;;;4201898;28;20503;-73
2023/04/10 02:59:44;;;;;;;36.80;18.73;;;5.20;99.90;;;;;;4202993;28;20444;-73
2023/04/10 03:01:46;;;;;;;41.47;20.60;;;5.10;99.90;;;;;;4206472;28;20667;-74
2023/04/10 03:03:48;;;;;;;39.20;20.93;;;5.10;99.90;;;;;;4198019;28;20460;-73
2023/04/10 03:05:50;;;;;;;37.80;19.73;;;5.10;99.90;;;;;;4202983;28;20464;-73
2023/04/10 03:07:54;;;;;;;38.67;20.27;;;5.10;99.90;;;;;;4201490;28;20501;-74
2023/04/10 03:09:56;;;;;;;41.13;20.20;;;5.10;99.90;;;;;;4196390;28;20479;-73
2023/04/10 03:11:58;;;;;;;36.83;19.13;;;5.00;99.90;;;;;;4203400;28;20472;-72
2023/04/10 03:14:00;;;;;;;35.03;19.40;;;5.00;99.90;;;;;;4202963;28;20474;-72
2023/04/10 03:16:01;;;;;;;41.33;21.17;;;5.00;99.90;;;;;;4205207;28;20985;-72
2023/04/10 03:18:04;;;;;;;37.23;19.83;;;5.00;99.90;;;;;;4196299;28;20533;-73
2023/04/10 03:20:07;;;;;;;36.87;19.07;;;5.00;99.90;;;;;;4202884;28;20446;-72
2023/04/10 03:22:09;;;;;;;35.17;19.07;;;5.00;99.90;;;;;;4200033;28;20892;-73
2023/04/10 03:24:13;;;;;;;38.57;19.93;;;4.90;99.90;;;;;;4199910;28;20499;-72
2023/04/10 03:26:15;;;;;;;36.27;18.83;;;4.90;99.90;;;;;;4201135;28;20478;-72
2023/04/10 03:28:17;;;;;;;38.33;19.67;;;4.90;99.90;;;;;;4202443;28;20914;-72
2023/04/10 03:30:19;;;;;;;36.20;18.33;;;4.90;99.90;;;;;;4204861;28;20444;-73
2023/04/10 03:32:21;;;;;;;36.07;18.60;;;4.90;99.90;;;;;;4202711;28;20535;-72
2023/04/10 03:34:23;;;;;;;34.40;17.87;;;4.90;99.90;;;;;;4197810;28;20486;-72
2023/04/10 03:36:26;;;;;;;37.37;18.43;;;4.80;99.90;;;;;;4198454;28;20475;-72
2023/04/10 03:38:28;;;;;;;33.07;17.20;;;4.80;99.90;;;;;;4204033;28;20453;-72
2023/04/10 03:40:33;;;;;;;34.57;17.57;;;4.80;99.90;;;;;;4202592;28;20877;-72
2023/04/10 03:42:35;;;;;;;35.70;17.77;;;4.80;99.90;;;;;;4198055;28;20547;-72
2023/04/10 03:44:37;;;;;;;31.60;16.53;;;4.80;99.90;;;;;;4199648;28;20453;-72
2023/04/10 03:46:39;;;;;;;32.27;16.50;;;4.70;99.90;;;;;;4200075;28;20460;-72
2023/04/10 03:48:41;;;;;;;33.13;16.33;;;4.70;99.90;;;;;;4199358;28;20463;-73
2023/04/10 03:50:43;;;;;;;33.07;17.00;;;4.70;99.90;;;;;;4200144;28;20452;-72
2023/04/10 03:52:45;;;;;;;30.90;16.03;;;4.70;99.90;;;;;;4200857;28;20533;-72
2023/04/10 03:54:47;;;;;;;32.77;16.40;;;4.70;99.90;;;;;;4198999;28;20984;-72
2023/04/10 03:56:50;;;;;;;29.93;16.00;;;4.70;99.90;;;;;;4202443;28;20508;-73
2023/04/10 03:58:52;;;;;;;34.17;16.83;;;4.70;99.90;;;;;;4201643;28;20474;-72
2023/04/10 04:00:54;;;;;;;32.97;15.47;;;4.60;99.90;;;;;;4201311;28;20472;-72
2023/04/10 04:02:57;;;;;;;32.07;15.57;;;4.60;99.90;;;;;;4201436;28;20464;-72
2023/04/10 04:04:59;;;;;;;33.50;16.10;;;4.60;99.90;;;;;;4200494;28;20443;-72
2023/04/10 04:07:01;;;;;;;32.73;16.27;;;4.60;99.90;;;;;;4204707;28;20467;-73
2023/04/10 04:09:03;;;;;;;31.27;15.50;;;4.60;99.90;;;;;;4200048;28;20466;-73
2023/04/10 04:11:06;;;;;;;30.90;15.40;;;4.60;99.90;;;;;;4201098;28;20437;-72
2023/04/10 04:13:09;;;;;;;28.70;14.33;;;4.60;99.90;;;;;;4200467;28;20435;-72
2023/04/10 04:15:11;;;;;;;30.43;14.90;;;4.50;99.90;;;;;;4198777;28;20869;-73
2023/04/10 04:17:13;;;;;;;31.97;15.60;;;4.50;99.90;;;;;;4200095;28;20504;-74
2023/04/10 04:19:15;;;;;;;28.23;14.30;;;4.50;99.90;;;;;;4200420;28;20484;-73
2023/04/10 04:21:17;;;;;;;28.57;14.37;;;4.50;99.90;;;;;;4201056;28;20558;-72
2023/04/10 04:23:19;;;;;;;30.53;14.37;;;4.50;99.90;;;;;;4199006;28;20463;-72
2023/04/10 04:25:21;;;;;;;28.33;14.73;;;4.50;99.90;;;;;;4198160;28;20476;-73
2023/04/10 04:27:23;;;;;;;28.43;14.73;;;4.50;99.90;;;;;;4200845;28;20496;-73
2023/04/10 04:29:26;;;;;;;28.73;14.43;;;4.40;99.90;;;;;;4202736;28;20443;-73
2023/04/10 04:31:31;;;;;;;27.17;15.07;;;4.40;99.90;;;;;;4207593;28;20449;-72
2023/04/10 04:33:33;;;;;;;26.80;14.23;;;4.40;99.90;;;;;;4210349;28;20451;-72
2023/04/10 04:35:35;;;;;;;27.47;14.60;;;4.40;99.90;;;;;;4207406;28;20455;-73
2023/04/10 04:37:37;;;;;;;28.57;14.50;;;4.30;99.90;;;;;;4204894;28;20468;-73
2023/04/10 04:39:39;;;;;;;30.37;15.43;;;4.40;99.90;;;;;;4209349;28;20454;-73
2023/04/10 04:41:41;;;;;;;31.67;17.03;;;4.30;99.90;;;;;;4206305;28;20496;-74
2023/04/10 04:43:43;;;;;;;32.67;16.77;;;4.30;99.90;;;;;;4203907;28;20459;-72
2023/04/10 04:45:46;;;;;;;33.50;17.50;;;4.30;99.90;;;;;;4195714;28;20456;-74
2023/04/10 04:47:48;;;;;;;32.27;15.47;;;4.30;99.90;;;;;;4204708;28;20551;-74
2023/04/10 04:49:50;;;;;;;30.67;16.17;;;4.30;99.90;;;;;;4203692;28;20542;-74
2023/04/10 04:51:52;;;;;;;32.73;16.80;;;4.30;99.90;;;;;;4200471;28;21464;-74
2023/04/10 04:53:54;;;;;;;30.87;15.87;;;4.30;99.90;;;;;;4203389;28;20463;-74
2023/04/10 04:55:56;;;;;;;28.50;15.23;;;4.30;99.90;;;;;;4203069;28;20512;-74
2023/04/10 04:57:58;;;;;;;31.73;15.70;;;4.30;99.90;;;;;;4198555;28;20495;-74
2023/04/10 05:00:03;;;;;;;30.00;16.13;;;4.20;99.90;;;;;;4205044;28;20460;-74
2023/04/10 05:02:06;;;;;;;32.37;17.20;;;4.20;99.90;;;;;;4203986;28;20870;-74
2023/04/10 05:04:08;;;;;;;31.53;16.17;;;4.20;99.90;;;;;;4199252;28;20488;-74
2023/04/10 05:06:10;;;;;;;33.43;16.97;;;4.20;99.90;;;;;;4201813;28;20456;-74
2023/04/10 05:08:15;;;;;;;33.00;16.17;;;4.20;99.90;;;;;;4201418;28;20745;-74
2023/04/10 05:10:17;;;;;;;35.33;16.50;;;4.20;99.90;;;;;;4197376;28;20476;-73
2023/04/10 05:12:19;;;;;;;27.87;14.97;;;4.20;99.90;;;;;;4197883;28;20448;-73
2023/04/10 05:14:21;;;;;;;31.00;15.30;;;4.20;99.90;;;;;;4205028;28;20538;-74
2023/04/10 05:16:23;;;;;;;29.53;14.87;;;4.20;99.90;;;;;;4202320;28;20648;-74
2023/04/10 05:18:27;;;;;;;31.07;15.37;;;4.20;99.90;;;;;;4204535;28;20487;-74
2023/04/10 05:20:30;;;;;;;26.20;14.43;;;4.20;99.90;;;;;;4208944;28;20456;-74
2023/04/10 05:22:32;;;;;;;28.40;14.03;;;4.20;99.90;;;;;;4199296;28;20484;-74
2023/04/10 05:24:34;;;;;;;27.60;15.20;;;4.20;99.90;;;;;;4210647;28;20447;-74
2023/04/10 05:26:36;;;;;;;27.87;14.53;;;4.20;99.90;;;;;;4203800;28;20504;-73
2023/04/10 05:28:38;;;;;;;27.40;14.80;;;4.20;99.90;;;;;;4211873;28;20462;-72
2023/04/10 05:30:40;;;;;;;30.00;15.60;;;4.20;99.90;;;;;;4200046;28;20454;-73
2023/04/10 05:32:42;;;;;;;29.67;15.00;;;4.20;99.90;;;;;;4208665;28;20435;-73
2023/04/10 05:34:45;;;;;;;30.07;14.70;;;4.20;99.90;;;;;;4205316;28;20483;-73
2023/04/10 05:36:47;;;;;;;31.87;16.00;;;4.20;99.90;;;;;;4205595;28;20566;-73
2023/04/10 05:38:49;;;;;;;30.63;14.50;;;4.30;99.90;;;;;;4206852;28;21474;-72
2023/04/10 05:40:51;;;;;;;30.77;15.03;;;4.20;99.90;;;;;;4205125;28;20948;-73
2023/04/10 05:42:53;;;;;;;28.97;14.77;;;4.20;99.90;;;;;;4204099;28;20524;-73
2023/04/10 05:44:55;;;;;;;30.23;15.07;;;4.30;99.90;;;;;;4201973;28;20464;-73
2023/04/10 05:46:57;;;;;;;29.80;15.03;;;4.30;99.90;;;;;;4203888;28;20504;-73
2023/04/10 05:48:59;;;;;;;30.90;15.33;;;4.30;99.90;;;;;;4207319;28;21025;-73
2023/04/10 05:51:02;;;;;;;28.57;14.50;;;4.40;99.90;;;;;;4204185;28;20467;-73
2023/04/10 05:53:04;;;;;;;28.73;14.43;;;4.40;99.90;;;;;;4209507;28;20886;-73
2023/04/10 05:55:08;;;;;;;32.60;16.03;;;4.40;99.90;;;;;;4206052;28;20520;-73
2023/04/10 05:57:10;;;;;;;31.53;15.27;;;4.50;99.90;;;;;;4208836;28;20495;-73
2023/04/10 05:59:12;;;;;;;28.33;15.33;;;4.50;99.90;;;;;;4196402;28;20893;-73
2023/04/10 06:01:14;;;;;;;32.27;15.73;;;4.50;99.90;;;;;;4200988;28;21404;-73
2023/04/10 06:03:16;;;;;;;33.37;16.07;;;4.50;99.90;;;;;;4203985;28;20456;-77
2023/04/10 06:05:18;;;;;;;31.43;16.17;;;4.60;99.90;;;;;;4196657;28;20476;-74
2023/04/10 06:07:21;;;;;;;31.40;15.63;;;4.60;99.90;;;;;;4202199;28;20503;-74
2023/04/10 06:09:23;;;;;;;29.23;14.97;;;4.70;99.90;;;;;;4206020;28;20459;-74
2023/04/10 06:11:26;;;;;;;32.07;16.03;;;4.70;99.90;;;;;;4201319;28;20460;-74
2023/04/10 06:13:28;;;;;;;32.13;16.17;;;4.70;99.90;;;;;;4202753;28;20447;-74
2023/04/10 06:15:30;;;;;;;31.17;15.50;;;4.70;99.90;;;;;;4199736;28;20507;-74
2023/04/10 06:17:31;;;;;;;28.50;14.43;;;4.80;99.90;;;;;;4200370;28;20506;-74
2023/04/10 06:19:33;;;;;;;32.90;15.87;;;4.80;99.90;;;;;;4200794;28;20453;-74
2023/04/10 06:21:35;;;;;;;32.50;16.10;;;4.90;99.90;;;;;;4202409;28;20508;-74
2023/04/10 06:23:39;;;;;;;35.30;17.53;;;4.90;99.90;;;;;;4206353;28;20469;-74
2023/04/10 06:25:41;;;;;;;34.57;17.20;;;5.00;99.90;;;;;;4208652;28;21028;-74
2023/04/10 06:27:43;;;;;;;33.37;16.47;;;5.00;99.90;;;;;;4203926;28;20484;-74
2023/04/10 06:29:45;;;;;;;32.03;15.97;;;5.10;99.90;;;;;;4197738;28;20588;-74
2023/04/10 06:31:47;;;;;;;32.73;16.63;;;5.10;99.90;;;;;;4198827;28;20492;-74
2023/04/10 06:33:49;;;;;;;34.23;17.63;;;5.20;99.90;;;;;;4203888;28;20508;-73
2023/04/10 06:35:51;;;;;;;32.57;16.67;;;5.20;99.90;;;;;;4203212;28;20998;-73
2023/04/10 06:37:53;;;;;;;32.87;16.60;;;5.30;99.90;;;;;;4198413;28;20471;-73
2023/04/10 06:40:03;;;;;;;33.33;16.97;;;5.30;99.90;;;;;;4198442;28;20994;-74
2023/04/10 06:42:05;;;;;;;32.70;16.40;;;5.30;99.90;;;;;;4198543;28;21273;-74
2023/04/10 06:44:07;;;;;;;31.63;16.37;;;5.40;99.90;;;;;;4203396;28;21021;-73
2023/04/10 06:46:09;;;;;;;34.23;17.63;;;5.40;99.90;;;;;;4209294;28;21014;-74
2023/04/10 06:48:11;;;;;;;33.33;17.53;;;5.40;99.90;;;;;;4203587;28;20898;-74
2023/04/10 06:50:13;;;;;;;30.73;16.73;;;5.50;99.90;;;;;;4209064;28;20532;-73
2023/04/10 06:52:15;;;;;;;33.10;17.20;;;5.50;99.90;;;;;;4200195;28;20447;-74
2023/04/10 06:54:17;;;;;;;30.93;16.83;;;5.60;99.90;;;;;;4207371;28;20533;-74
2023/04/10 06:56:22;;;;;;;30.60;16.20;;;5.60;99.90;;;;;;4199069;28;20558;-74
2023/04/10 06:58:24;;;;;;;32.23;15.83;;;5.70;99.90;;;;;;4196433;28;20456;-74
2023/04/10 07:00:26;;;;;;;29.70;16.07;;;5.80;99.90;;;;;;4200168;28;21191;-74
2023/04/10 07:02:28;;;;;;;30.87;16.20;;;5.70;99.90;;;;;;4201193;28;20669;-74
2023/04/10 07:04:30;;;;;;;33.97;17.10;;;5.80;99.90;;;;;;4202273;28;21458;-74
2023/04/10 07:06:32;;;;;;;33.50;16.57;;;5.90;99.90;;;;;;4205827;28;20508;-74
2023/04/10 07:08:35;;;;;;;37.53;17.73;;;6.00;99.90;;;;;;4200947;28;20935;-74
2023/04/10 07:10:37;;;;;;;37.30;18.37;;;6.00;99.90;;;;;;4200346;28;20530;-73
2023/04/10 07:12:40;;;;;;;34.73;17.97;;;6.10;99.90;;;;;;4203003;28;20474;-73
2023/04/10 07:14:42;;;;;;;34.37;17.07;;;6.20;99.90;;;;;;4201304;28;20493;-73
2023/04/10 07:16:44;;;;;;;34.93;17.50;;;6.30;99.90;;;;;;4201916;28;20997;-73
2023/04/10 07:18:46;;;;;;;34.50;17.10;;;6.40;99.90;;;;;;4203551;28;20446;-73
2023/04/10 07:20:48;;;;;;;34.77;16.60;;;6.40;99.90;;;;;;4202923;28;20451;-73
2023/04/10 07:22:50;;;;;;;32.70;16.83;;;6.50;99.90;;;;;;4201215;28;20477;-73
2023/04/10 07:24:52;;;;;;;32.67;16.87;;;6.50;99.90;;;;;;4200386;28;20444;-73
2023/04/10 07:26:57;;;;;;;33.33;17.03;;;6.50;99.90;;;;;;4199726;28;20487;-73
2023/04/10 07:29:00;;;;;;;42.60;20.83;;;6.60;99.90;;;;;;4201322;28;20971;-73
2023/04/10 07:31:02;;;;;;;38.13;19.20;;;6.70;99.90;;;;;;4204623;28;20999;-73
2023/04/10 07:33:04;;;;;;;33.73;17.27;;;6.80;99.90;;;;;;4200826;28;20452;-73
2023/04/10 07:35:07;;;;;;;33.00;17.00;;;6.90;99.90;;;;;;4200311;28;20942;-73
2023/04/10 07:37:09;;;;;;;32.50;16.73;;;7.00;99.90;;;;;;4201514;28;20849;-73
2023/04/10 07:39:11;;;;;;;32.60;16.87;;;7.00;99.90;;;;;;4195110;28;20468;-73
2023/04/10 07:41:13;;;;;;;31.50;16.40;;;7.10;99.90;;;;;;4200009;28;20501;-73
2023/04/10 07:43:15;;;;;;;31.73;16.33;;;7.20;99.90;;;;;;4204225;28;20486;-73
2023/04/10 07:45:21;;;;;;;30.40;17.00;;;7.30;99.90;;;;;;4204737;28;20843;-73
2023/04/10 07:47:23;;;;;;;33.17;16.80;;;7.40;99.90;;;;;;4200310;28;20472;-73
2023/04/10 07:49:26;;;;;;;33.67;17.13;;;7.50;99.90;;;;;;4205098;28;20516;-73
2023/04/10 07:51:28;;;;;;;31.00;17.33;;;7.50;99.90;;;;;;4198712;28;21024;-73
2023/04/10 07:53:30;;;;;;;32.70;16.73;;;7.60;99.90;;;;;;4206722;28;20943;-73
2023/04/10 07:55:32;;;;;;;28.43;16.13;;;7.70;99.90;;;;;;4200249;28;20459;-73
2023/04/10 07:57:35;;;;;;;31.83;16.67;;;7.70;99.90;;;;;;4204148;28;20482;-73
2023/04/10 07:59:37;;;;;;;27.03;14.73;;;7.80;99.90;;;;;;4202398;28;20482;-73
2023/04/10 08:01:40;;;;;;;32.07;17.33;;;7.80;99.90;;;;;;4205998;28;20482;-73
2023/04/10 08:03:44;;;;;;;34.30;17.23;;;7.90;99.90;;;;;;4197906;28;20484;-73
2023/04/10 08:05:46;;;;;;;31.40;16.97;;;8.10;99.90;;;;;;4201563;28;20447;-73
2023/04/10 08:07:47;;;;;;;31.43;16.80;;;8.30;99.90;;;;;;4207791;28;20260;-73
2023/04/10 08:09:50;;;;;;;28.73;15.57;;;8.30;99.90;;;;;;4201456;28;20233;-73
2023/04/10 08:11:51;;;;;;;31.77;16.73;;;8.30;99.90;;;;;;4199411;28;20471;-73
2023/04/10 08:13:54;;;;;;;29.23;15.23;;;8.40;99.90;;;;;;4200221;28;20494;-73
2023/04/10 08:15:56;;;;;;;30.70;15.83;;;8.60;99.90;;;;;;4197356;28;20296;-73
2023/04/10 08:17:59;;;;;;;28.27;15.33;;;8.70;99.90;;;;;;4199147;28;20391;-73
2023/04/10 08:20:01;;;;;;;28.20;15.03;;;8.80;99.90;;;;;;4203048;28;20796;-73
2023/04/10 08:22:03;;;;;;;26.07;14.43;;;8.80;99.90;;;;;;4196169;28;20255;-73
2023/04/10 08:24:05;;;;;;;25.23;13.83;;;9.00;99.90;;;;;;4204758;28;20206;-73
2023/04/10 08:26:07;;;;;;;28.30;15.10;;;9.00;99.90;;;;;;4203677;28;20210;-72
2023/04/10 08:28:09;;;;;;;25.83;14.80;;;9.10;99.90;;;;;;4200661;28;20252;-73
2023/04/10 08:30:12;;;;;;;27.70;15.00;;;9.20;99.90;;;;;;4197975;28;20229;-71
2023/04/10 08:32:14;;;;;;;26.63;14.13;;;9.20;99.90;;;;;;4202895;28;20394;-72
2023/04/10 08:34:17;;;;;;;25.30;14.57;;;9.30;99.90;;;;;;4200850;28;20719;-72
2023/04/10 08:36:19;;;;;;;25.77;14.30;;;9.40;99.90;;;;;;4195791;28;20231;-73
2023/04/10 08:38:23;;;;;;;25.20;13.13;;;9.50;99.90;;;;;;4203247;28;20210;-74
2023/04/10 08:40:25;;;;;;;25.40;13.53;;;9.50;99.90;;;;;;4200531;28;20215;-74
2023/04/10 08:42:28;;;;;;;25.43;13.83;;;9.60;99.90;;;;;;4199322;28;20335;-71
2023/04/10 08:44:30;;;;;;;27.57;14.73;;;9.70;99.90;;;;;;4202363;28;20598;-71
2023/04/10 08:46:36;;;;;;;25.80;14.30;;;9.70;99.90;;;;;;4200690;28;20306;-72
2023/04/10 08:48:41;;;;;;;23.90;13.40;;;9.80;99.90;;;;;;4201034;28;20665;-72
2023/04/10 08:50:46;;;;;;;28.40;15.03;;;9.90;99.90;;;;;;4200363;28;20212;-71
2023/04/10 08:52:51;;;;;;;24.13;13.73;;;10.00;99.90;;;;;;4196003;28;20287;-72
2023/04/10 08:54:56;;;;;;;24.97;14.00;;;10.10;99.90;;;;;;4199580;28;20233;-73
2023/04/10 08:57:00;;;;;;;27.87;15.17;;;10.10;99.90;;;;;;4203503;28;20222;-72
2023/04/10 08:59:02;;;;;;;25.93;14.43;;;10.20;99.90;;;;;;4201627;28;20234;-74
2023/04/10 09:01:06;;;;;;;24.60;13.87;;;10.30;99.90;;;;;;4203687;28;20199;-74
2023/04/10 09:03:10;;;;;;;26.10;14.23;;;10.40;99.90;;;;;;4200809;28;20772;-73
2023/04/10 09:05:12;;;;;;;25.33;13.70;;;10.50;99.90;;;;;;4205500;28;20219;-75
2023/04/10 09:07:16;;;;;;;24.23;13.67;;;10.60;99.90;;;;;;4203609;28;20298;-76
2023/04/10 09:09:20;;;;;;;24.10;13.00;;;10.60;99.90;;;;;;4203378;28;20232;-73
2023/04/10 09:11:22;;;;;;;21.97;12.33;;;10.70;99.90;;;;;;4203040;28;20284;-75
2023/04/10 09:13:37;;;;;;;24.37;13.67;;;10.80;99.90;;;;;;4203713;28;20205;-72
2023/04/10 09:15:59;;;;;;;22.03;13.20;;;11.00;99.90;;;;;;4203640;28;20320;-74
2023/04/10 09:18:02;;;;;;;34.53;16.67;;;11.20;99.90;;;;;;4203890;28;20208;-74
2023/04/10 09:20:21;;;;;;;35.93;16.13;;;11.30;99.90;;;;;;4203922;28;20208;-70
2023/04/10 09:22:32;;;;;;;30.73;14.93;;;11.40;99.90;;;;;;4205599;28;20216;-70
2023/04/10 09:24:37;;;;;;;22.70;12.47;;;11.50;99.90;;;;;;4202524;28;20576;-70
2023/04/10 09:26:39;;;;;;;22.10;12.27;;;11.70;99.90;;;;;;4197121;28;20225;-71
2023/04/10 09:28:59;;;;;;;20.70;12.27;;;11.80;99.90;;;;;;4201954;28;20667;-72
2023/04/10 09:31:01;;;;;;;22.07;12.43;;;11.90;99.90;;;;;;4205374;28;20694;-76
2023/04/10 09:33:03;;;;;;;19.70;11.43;;;12.00;99.90;;;;;;4203627;28;20860;-75
2023/04/10 09:35:07;;;;;;;18.63;10.90;;;12.10;99.90;;;;;;4203447;28;20232;-73
2023/04/10 09:37:09;;;;;;;19.10;11.23;;;12.20;99.90;;;;;;4200923;28;20260;-71
2023/04/10 09:39:12;;;;;;;18.00;11.07;;;12.30;99.90;;;;;;4206519;28;20660;-73
2023/04/10 09:41:14;;;;;;;19.00;10.57;;;12.40;99.90;;;;;;4204071;28;20247;-72
2023/04/10 09:43:21;;;;;;;16.00;9.40;;;12.50;99.90;;;;;;4201978;28;20221;-71
2023/04/10 09:45:26;;;;;;;18.03;10.40;;;12.60;99.90;;;;;;4203554;28;20288;-73
2023/04/10 09:47:29;;;;;;;18.27;10.40;;;12.80;99.90;;;;;;4206702;28;20220;-71
2023/04/10 09:49:45;;;;;;;18.23;9.53;;;12.80;99.90;;;;;;4202255;28;20266;-72
2023/04/10 09:51:48;;;;;;;16.33;9.70;;;12.90;99.90;;;;;;4205395;28;20221;-72
2023/04/10 09:53:50;;;;;;;15.23;8.67;;;13.00;99.90;;;;;;4198038;28;20198;-72
2023/04/10 09:55:55;;;;;;;15.73;8.63;;;13.10;99.90;;;;;;4200897;28;20206;-73
2023/04/10 09:57:58;;;;;;;15.93;8.20;;;13.10;99.90;;;;;;4202780;28;20224;-71
2023/04/10 10:00:02;;;;;;;13.60;7.80;;;13.20;99.90;;;;;;4202118;28;20291;-72
2023/04/10 10:02:05;;;;;;;14.33;9.07;;;13.30;99.90;;;;;;4200314;28;20233;-73
2023/04/10 10:04:08;;;;;;;15.20;8.90;;;13.40;99.90;;;;;;4201526;28;20275;-72
2023/04/10 10:06:12;;;;;;;13.23;8.33;;;13.50;99.90;;;;;;4204633;28;20289;-72
2023/04/10 10:08:15;;;;;;;13.40;8.07;;;13.50;99.90;;;;;;4205629;28;20233;-71
2023/04/10 10:10:17;;;;;;;13.47;7.43;;;13.60;99.90;;;;;;4201585;28;20236;-72
2023/04/10 10:12:24;;;;;;;12.93;8.13;;;13.70;99.90;;;;;;4199317;28;20321;-71
2023/04/10 10:14:28;;;;;;;12.83;7.97;;;13.80;99.90;;;;;;4202074;28;20198;-72
2023/04/10 10:16:37;;;;;;;12.47;7.97;;;13.90;99.90;;;;;;4198150;28;20283;-71
2023/04/10 10:18:44;;;;;;;15.17;8.57;;;13.90;99.90;;;;;;4199496;28;20289;-72
2023/04/10 10:20:47;;;;;;;13.40;8.30;;;14.00;99.90;;;;;;4202099;28;20634;-72
2023/04/10 10:22:50;;;;;;;13.40;8.10;;;14.10;99.90;;;;;;4206664;28;20213;-72
2023/04/10 10:24:55;;;;;;;13.10;7.50;;;14.20;99.90;;;;;;4202823;28;20261;-72
2023/04/10 10:27:00;;;;;;;12.50;8.27;;;14.30;99.90;;;;;;4202385;28;20231;-71
2023/04/10 10:29:09;;;;;;;13.37;8.07;;;14.40;99.90;;;;;;4202292;28;20253;-71
2023/04/10 10:31:11;;;;;;;12.87;8.37;;;14.40;99.90;;;;;;4200680;28;20208;-71
2023/04/10 10:33:14;;;;;;;13.27;7.90;;;14.50;99.90;;;;;;4199267;28;20204;-72